createdAt,value
2022-08-07T00:03:01.731Z,4.2
2022-08-07T00:04:39.570Z,5.1
2022-08-07T00:09:40.420Z,4.4
2022-08-07T00:14:40.969Z,5.4
2022-08-07T00:20:01.448Z,6.1
2022-08-07T00:24:42.490Z,5.7
2022-08-07T00:29:43.161Z,7.6
2022-08-07T00:34:44.041Z,8.1
2022-08-07T00:39:45.059Z,10.0
2022-08-07T00:44:45.410Z,7.9
2022-08-07T00:50:19.611Z,8.7
2022-08-07T00:54:46.761Z,8.5
2022-08-07T00:59:47.772Z,5.9
2022-08-07T01:04:48.147Z,7.2
2022-08-07T01:10:04.218Z,6.4
2022-08-07T01:14:49.944Z,7.3
2022-08-07T01:19:54.211Z,6.7
2022-08-07T01:24:51.052Z,8.8
2022-08-07T01:29:51.752Z,9.6
2022-08-07T01:34:52.701Z,13.2
2022-08-07T01:39:53.204Z,8.4
2022-08-07T01:44:53.971Z,10.2
2022-08-07T01:49:54.903Z,11.3
2022-08-07T01:54:55.483Z,10.3
2022-08-07T01:59:56.096Z,10.6
2022-08-07T02:04:57.402Z,12.1
2022-08-07T02:09:58.536Z,11.7
2022-08-07T02:14:58.420Z,13.5
2022-08-07T02:20:07.796Z,13.0
2022-08-07T02:24:59.801Z,10.4
2022-08-07T02:30:00.560Z,10.6
2022-08-07T02:35:01.431Z,8.5
2022-08-07T02:40:30.165Z,11.4
2022-08-07T02:45:13.588Z,10.5
2022-08-07T02:50:03.581Z,12.5
2022-08-07T02:55:04.213Z,11.4
2022-08-07T03:00:10.407Z,14.9
2022-08-07T03:05:06.771Z,11.0
2022-08-07T03:10:06.623Z,10.9
2022-08-07T03:15:07.539Z,11.9
2022-08-07T03:20:08.117Z,10.5
2022-08-07T03:25:10.375Z,14.3
2022-08-07T03:30:12.818Z,11.5
2022-08-07T03:35:17.674Z,12.7
2022-08-07T03:40:15.188Z,11.1
2022-08-07T03:45:11.706Z,14.8
2022-08-07T03:50:12.741Z,12.7
2022-08-07T03:55:13.183Z,10.9
2022-08-07T04:00:14.010Z,14.7
2022-08-07T04:05:15.205Z,10.9
2022-08-07T04:10:19.254Z,8.2
2022-08-07T04:15:16.199Z,7.3
2022-08-07T04:20:17.231Z,10.5
2022-08-07T04:25:17.674Z,10.6
2022-08-07T04:30:35.523Z,10.7
2022-08-07T04:35:19.264Z,13.1
2022-08-07T04:40:19.850Z,13.1
2022-08-07T04:45:52.108Z,15.7
2022-08-07T04:50:22.302Z,17.6
2022-08-07T04:58:07.514Z,14.0
2022-08-07T05:00:30.824Z,12.7
2022-08-07T05:05:52.631Z,10.4
2022-08-07T05:10:24.113Z,16.1
2022-08-07T05:15:25.083Z,10.6
2022-08-07T05:20:25.879Z,10.5
2022-08-07T05:26:10.395Z,7.4
2022-08-07T05:30:30.253Z,9.3
2022-08-07T05:35:33.402Z,9.9
2022-08-07T05:40:28.697Z,10.1
2022-08-07T05:45:47.869Z,9.2
2022-08-07T05:50:30.102Z,10.6
2022-08-07T05:56:01.843Z,7.1
2022-08-07T06:00:31.501Z,10.9
2022-08-07T06:05:32.624Z,11.1
2022-08-07T06:10:32.901Z,7.1
2022-08-07T06:15:39.418Z,6.3
2022-08-07T06:20:49.703Z,8.2
2022-08-07T06:25:36.522Z,7.6
2022-08-07T06:30:41.415Z,5.6
2022-08-07T06:35:45.390Z,7.3
2022-08-07T06:40:37.245Z,11.4
2022-08-07T06:45:37.910Z,7.8
2022-08-07T06:50:38.691Z,7.8
2022-08-07T06:55:54.039Z,8.3
2022-08-07T07:00:41.412Z,10.1
2022-08-07T07:06:04.187Z,9.9
2022-08-07T07:10:47.499Z,8.8
2022-08-07T07:15:43.167Z,6.1
2022-08-07T07:20:43.030Z,8.9
2022-08-07T07:26:34.780Z,9.6
2022-08-07T07:30:44.481Z,7.1
2022-08-07T07:36:03.742Z,8.7
2022-08-07T07:40:46.060Z,7.6
2022-08-07T07:46:36.752Z,13.7
2022-08-07T07:50:47.600Z,10.4
2022-08-07T07:55:57.468Z,10.6
2022-08-07T08:00:53.766Z,6.3
2022-08-07T08:05:53.898Z,7.3
2022-08-07T08:10:50.822Z,7.8
2022-08-07T08:15:58.474Z,6.0
2022-08-07T08:20:52.040Z,8.3
2022-08-07T08:25:54.559Z,6.2
2022-08-07T08:30:55.691Z,6.9
2022-08-07T08:35:54.300Z,6.6
2022-08-07T08:40:54.763Z,7.0
2022-08-07T08:45:59.399Z,7.1
2022-08-07T08:50:56.327Z,5.2
2022-08-07T08:55:58.932Z,8.8
2022-08-07T09:00:57.756Z,5.1
2022-08-07T09:05:59.276Z,9.7
2022-08-07T09:10:59.201Z,7.9
2022-08-07T09:16:21.841Z,4.5
2022-08-07T09:21:01.296Z,4.1
2022-08-07T09:26:01.607Z,3.8
2022-08-07T09:31:03.050Z,2.7
2022-08-07T09:36:06.191Z,3.3
2022-08-07T09:41:03.645Z,4.3
2022-08-07T09:47:25.529Z,2.6
2022-08-07T09:51:05.434Z,1.5
2022-08-07T09:56:05.601Z,3.6
2022-08-07T10:01:08.482Z,4.2
2022-08-07T10:06:11.965Z,6.1
2022-08-07T10:11:59.144Z,4.3
2022-08-07T10:16:08.654Z,2.7
2022-08-07T10:21:50.365Z,5.1
2022-08-07T10:26:09.971Z,3.6
2022-08-07T10:31:11.246Z,3.4
2022-08-07T10:36:12.656Z,3.5
2022-08-07T10:41:12.465Z,6.7
2022-08-07T10:46:13.041Z,5.4
2022-08-07T10:51:16.605Z,4.4
2022-08-07T10:56:20.689Z,4.4
2022-08-07T11:01:15.558Z,4.6
2022-08-07T11:06:18.419Z,2.4
2022-08-07T11:11:20.813Z,3.1
2022-08-07T11:16:19.549Z,5.0
2022-08-07T11:21:18.468Z,3.8
2022-08-07T11:26:19.800Z,6.6
2022-08-07T11:31:19.821Z,5.0
2022-08-07T11:36:25.358Z,4.5
2022-08-07T11:41:59.971Z,3.2
2022-08-07T11:46:22.033Z,6.8
2022-08-07T11:51:41.343Z,3.5
2022-08-07T11:56:26.547Z,4.0
2022-08-07T12:01:24.617Z,6.8
2022-08-07T12:06:37.827Z,4.5
2022-08-07T12:09:07.621Z,4.5
2022-08-07T12:11:26.287Z,4.8
2022-08-07T12:16:30.270Z,3.8
2022-08-07T12:22:36.567Z,5.2
2022-08-07T12:26:29.854Z,3.9
2022-08-07T12:31:53.350Z,5.9
2022-08-07T12:36:33.332Z,3.9
2022-08-07T12:41:49.422Z,3.8
2022-08-07T12:46:32.411Z,3.9
2022-08-07T12:51:46.493Z,3.4
2022-08-07T12:56:32.766Z,4.6
2022-08-07T13:01:33.518Z,3.5
2022-08-07T13:06:34.234Z,2.3
2022-08-07T13:12:03.344Z,2.9
2022-08-07T13:16:36.737Z,5.5
2022-08-07T13:21:50.220Z,2.8
2022-08-07T13:26:37.474Z,5.1
2022-08-07T13:31:46.056Z,5.2
2022-08-07T13:36:40.636Z,4.1
2022-08-07T13:41:41.350Z,6.7
2022-08-07T13:46:49.250Z,4.5
2022-08-07T13:52:22.223Z,6.4
2022-08-07T13:56:52.177Z,4.8
2022-08-07T14:01:51.072Z,5.4
2022-08-07T14:06:43.740Z,8.2
2022-08-07T14:12:00.219Z,5.7
2022-08-07T14:16:45.229Z,5.9
2022-08-07T14:22:01.120Z,5.9
2022-08-07T14:26:50.649Z,3.6
2022-08-07T14:31:53.302Z,2.6
2022-08-07T14:36:56.299Z,5.6
2022-08-07T14:42:19.845Z,6.9
2022-08-07T14:46:56.538Z,2.5
2022-08-07T14:52:05.005Z,3.3
2022-08-07T14:56:51.250Z,3.9
2022-08-07T15:01:51.687Z,3.7
2022-08-07T15:06:52.515Z,2.8
2022-08-07T15:12:01.584Z,2.1
2022-08-07T15:16:55.234Z,1.3
2022-08-07T15:22:03.907Z,2.2
2022-08-07T15:26:55.585Z,2.8
2022-08-07T15:32:01.675Z,2.2
2022-08-07T15:37:03.842Z,5.8
2022-08-07T15:42:45.245Z,9.8
2022-08-07T15:46:58.528Z,9.4
2022-08-07T15:56:59.986Z,26.9
2022-08-07T16:02:01.765Z,30.5
2022-08-07T16:07:01.155Z,27.8
2022-08-07T16:12:02.543Z,34.2
2022-08-07T16:17:02.586Z,29.9
2022-08-07T16:22:09.616Z,29.2
2022-08-07T16:27:04.086Z,25.6
2022-08-07T16:32:05.269Z,24.0
2022-08-07T16:38:04.682Z,26.3
2022-08-07T16:42:06.271Z,26.5
2022-08-07T16:47:18.622Z,23.6
2022-08-07T16:52:49.376Z,23.6
2022-08-07T16:57:15.524Z,23.3
2022-08-07T17:02:09.202Z,23.8
2022-08-07T17:07:10.085Z,21.8
2022-08-07T17:12:34.320Z,20.3
2022-08-07T17:17:12.137Z,10.6
2022-08-07T17:22:11.984Z,13.9
2022-08-07T17:27:19.789Z,10.0
2022-08-07T17:32:14.055Z,11.9
2022-08-07T17:38:05.039Z,12.4
2022-08-07T17:42:14.903Z,10.8
2022-08-07T17:47:16.851Z,7.5
2022-08-07T17:52:16.543Z,4.6
2022-08-07T17:57:18.743Z,8.3
2022-08-07T18:02:23.201Z,9.3
2022-08-07T18:07:20.199Z,10.1
2022-08-07T18:12:28.195Z,9.6
2022-08-07T18:17:20.192Z,11.4
2022-08-07T18:22:26.366Z,8.9
2022-08-07T18:27:21.532Z,7.8
2022-08-07T18:32:22.350Z,8.0
2022-08-07T18:38:57.456Z,8.4
2022-08-07T18:42:26.666Z,10.3
2022-08-07T18:47:24.752Z,10.9
2022-08-07T18:52:40.974Z,13.5
2022-08-07T18:57:40.194Z,15.3
2022-08-07T19:02:34.286Z,19.6
2022-08-07T19:07:34.591Z,15.5
2022-08-07T19:12:28.378Z,10.1
2022-08-07T19:18:01.099Z,13.6
2022-08-07T19:22:31.137Z,17.7
2022-08-07T19:28:57.515Z,15.6
2022-08-07T19:32:37.075Z,19.2
2022-08-07T19:37:55.018Z,14.7
2022-08-07T19:42:40.155Z,15.7
2022-08-07T19:47:36.513Z,11.3
2022-08-07T19:52:34.340Z,18.8
2022-08-07T19:58:04.684Z,13.0
2022-08-07T20:02:35.764Z,12.9
2022-08-07T20:07:47.692Z,11.4
2022-08-07T20:12:37.593Z,9.6
2022-08-07T20:17:38.795Z,12.2
2022-08-07T20:22:38.800Z,14.8
2022-08-07T20:27:47.921Z,12.1
2022-08-07T20:32:40.940Z,14.6
2022-08-07T20:37:55.235Z,12.5
2022-08-07T20:42:41.308Z,17.0
2022-08-07T20:47:56.061Z,16.4
2022-08-07T20:52:52.023Z,19.7
2022-08-07T20:57:47.706Z,16.5
2022-08-07T21:02:55.535Z,16.4
2022-08-07T21:07:48.784Z,17.5
2022-08-07T21:12:45.623Z,17.6
2022-08-07T21:18:17.377Z,18.1
2022-08-07T21:22:51.217Z,20.1
2022-08-07T21:27:47.932Z,15.7
2022-08-07T21:32:52.181Z,16.1
2022-08-07T21:37:58.346Z,16.9
2022-08-07T21:42:50.398Z,22.2
2022-08-07T21:47:51.006Z,16.5
2022-08-07T21:52:51.635Z,14.8
2022-08-07T21:57:52.874Z,17.6
2022-08-07T22:02:53.237Z,19.3
2022-08-07T22:07:59.344Z,13.1
2022-08-07T22:12:54.592Z,22.5
2022-08-07T22:17:56.248Z,15.9
2022-08-07T22:22:56.006Z,15.3
2022-08-07T22:28:07.628Z,13.4
2022-08-07T22:32:57.692Z,15.9
2022-08-07T22:38:02.766Z,17.4
2022-08-07T22:42:59.381Z,12.5
2022-08-07T22:47:59.953Z,16.1
2022-08-07T22:53:00.562Z,15.1
2022-08-07T22:58:01.159Z,16.1
2022-08-07T23:03:02.051Z,11.4
2022-08-07T23:08:04.840Z,13.3
2022-08-07T23:13:03.460Z,15.1
2022-08-07T23:18:04.424Z,12.6
2022-08-07T23:23:05.023Z,11.2
2022-08-07T23:28:21.156Z,11.1
2022-08-07T23:34:34.013Z,13.6
2022-08-07T23:38:07.086Z,15.8
2022-08-07T23:43:16.968Z,12.4
2022-08-07T23:48:08.679Z,12.7
2022-08-07T23:53:15.448Z,9.9
2022-08-07T23:58:18.450Z,12.9
